sensor_id;sensor_type;location;lat;lon;timestamp;P1;durP1;ratioP1;P2;durP2;ratioP2
4597;SDS011;62772;48.646;8.906;2023-03-01T00:04:43;29.37;;;14.93;;
4597;SDS011;62772;48.646;8.906;2023-03-01T00:09:43;34.03;;;15.13;;
4597;SDS011;62772;48.646;8.906;2023-03-01T00:14:45;33.03;;;15.43;;
4597;SDS011;62772;48.646;8.906;2023-03-01T00:19:46;32.37;;;15.13;;
4597;SDS011;62772;48.646;8.906;2023-03-01T00:24:46;36.33;;;15.73;;
4597;SDS011;62772;48.646;8.906;2023-03-01T00:29:47;41.77;;;15.47;;
4597;SDS011;62772;48.646;8.906;2023-03-01T00:34:47;31.30;;;14.77;;
4597;SDS011;62772;48.646;8.906;2023-03-01T00:39:54;31.80;;;16.47;;
4597;SDS011;62772;48.646;8.906;2023-03-01T00:44:55;32.30;;;16.23;;
4597;SDS011;62772;48.646;8.906;2023-03-01T00:49:55;33.83;;;15.57;;
4597;SDS011;62772;48.646;8.906;2023-03-01T00:54:56;31.43;;;15.13;;
4597;SDS011;62772;48.646;8.906;2023-03-01T00:59:57;31.93;;;14.10;;
4597;SDS011;62772;48.646;8.906;2023-03-01T01:04:59;28.27;;;14.90;;
4597;SDS011;62772;48.646;8.906;2023-03-01T01:10:00;30.77;;;14.87;;
4597;SDS011;62772;48.646;8.906;2023-03-01T01:15:00;29.17;;;14.00;;
4597;SDS011;62772;48.646;8.906;2023-03-01T01:20:01;30.60;;;14.50;;
4597;SDS011;62772;48.646;8.906;2023-03-01T01:25:02;28.13;;;14.33;;
4597;SDS011;62772;48.646;8.906;2023-03-01T01:30:03;29.83;;;15.10;;
4597;SDS011;62772;48.646;8.906;2023-03-01T01:35:04;32.50;;;15.13;;
4597;SDS011;62772;48.646;8.906;2023-03-01T01:40:05;28.23;;;14.60;;
4597;SDS011;62772;48.646;8.906;2023-03-01T01:50:33;33.10;;;16.13;;
4597;SDS011;62772;48.646;8.906;2023-03-01T01:55:39;30.23;;;15.27;;
4597;SDS011;62772;48.646;8.906;2023-03-01T02:00:49;36.40;;;15.77;;
4597;SDS011;62772;48.646;8.906;2023-03-01T02:11:04;33.53;;;15.30;;
4597;SDS011;62772;48.646;8.906;2023-03-01T02:16:08;33.90;;;15.60;;
4597;SDS011;62772;48.646;8.906;2023-03-01T02:21:29;34.73;;;15.03;;
4597;SDS011;62772;48.646;8.906;2023-03-01T02:26:35;33.27;;;15.27;;
4597;SDS011;62772;48.646;8.906;2023-03-01T02:31:42;34.17;;;15.50;;
4597;SDS011;62772;48.646;8.906;2023-03-01T02:36:56;30.33;;;14.40;;
4597;SDS011;62772;48.646;8.906;2023-03-01T02:42:00;31.00;;;14.77;;
4597;SDS011;62772;48.646;8.906;2023-03-01T02:47:03;40.63;;;17.57;;
4597;SDS011;62772;48.646;8.906;2023-03-01T02:52:07;37.90;;;16.10;;
4597;SDS011;62772;48.646;8.906;2023-03-01T02:57:31;31.87;;;17.17;;
4597;SDS011;62772;48.646;8.906;2023-03-01T03:02:33;34.03;;;15.60;;
4597;SDS011;62772;48.646;8.906;2023-03-01T03:07:50;36.47;;;16.27;;
4597;SDS011;62772;48.646;8.906;2023-03-01T03:12:58;37.80;;;17.10;;
4597;SDS011;62772;48.646;8.906;2023-03-01T03:18:05;34.53;;;16.70;;
4597;SDS011;62772;48.646;8.906;2023-03-01T03:23:07;32.70;;;15.70;;
4597;SDS011;62772;48.646;8.906;2023-03-01T03:28:08;31.93;;;16.47;;
4597;SDS011;62772;48.646;8.906;2023-03-01T03:33:11;34.87;;;17.77;;
4597;SDS011;62772;48.646;8.906;2023-03-01T03:38:13;31.40;;;16.40;;
4597;SDS011;62772;48.646;8.906;2023-03-01T03:43:18;38.10;;;17.23;;
4597;SDS011;62772;48.646;8.906;2023-03-01T03:48:20;35.30;;;16.23;;
4597;SDS011;62772;48.646;8.906;2023-03-01T03:53:21;36.07;;;17.10;;
4597;SDS011;62772;48.646;8.906;2023-03-01T03:58:23;38.63;;;17.77;;
4597;SDS011;62772;48.646;8.906;2023-03-01T04:03:25;36.80;;;16.70;;
4597;SDS011;62772;48.646;8.906;2023-03-01T04:08:29;38.20;;;17.63;;
4597;SDS011;62772;48.646;8.906;2023-03-01T04:13:30;33.23;;;16.07;;
4597;SDS011;62772;48.646;8.906;2023-03-01T04:18:30;37.23;;;18.13;;
4597;SDS011;62772;48.646;8.906;2023-03-01T04:23:31;36.20;;;16.87;;
4597;SDS011;62772;48.646;8.906;2023-03-01T04:28:32;35.00;;;17.23;;
4597;SDS011;62772;48.646;8.906;2023-03-01T04:33:34;40.17;;;16.70;;
4597;SDS011;62772;48.646;8.906;2023-03-01T04:38:35;34.97;;;17.10;;
4597;SDS011;62772;48.646;8.906;2023-03-01T04:43:39;36.20;;;17.50;;
4597;SDS011;62772;48.646;8.906;2023-03-01T04:48:41;54.87;;;18.07;;
4597;SDS011;62772;48.646;8.906;2023-03-01T04:53:42;36.63;;;17.37;;
4597;SDS011;62772;48.646;8.906;2023-03-01T04:58:44;39.20;;;18.20;;
4597;SDS011;62772;48.646;8.906;2023-03-01T05:03:51;39.63;;;18.70;;
4597;SDS011;62772;48.646;8.906;2023-03-01T05:08:51;38.03;;;17.67;;
4597;SDS011;62772;48.646;8.906;2023-03-01T05:13:52;39.83;;;18.77;;
4597;SDS011;62772;48.646;8.906;2023-03-01T05:18:55;38.33;;;17.00;;
4597;SDS011;62772;48.646;8.906;2023-03-01T05:23:55;42.00;;;19.57;;
4597;SDS011;62772;48.646;8.906;2023-03-01T05:28:55;40.67;;;18.80;;
4597;SDS011;62772;48.646;8.906;2023-03-01T05:33:59;35.87;;;17.80;;
4597;SDS011;62772;48.646;8.906;2023-03-01T05:38:59;40.50;;;18.50;;
4597;SDS011;62772;48.646;8.906;2023-03-01T05:44:00;47.07;;;18.83;;
4597;SDS011;62772;48.646;8.906;2023-03-01T05:49:00;42.63;;;20.03;;
4597;SDS011;62772;48.646;8.906;2023-03-01T05:54:00;40.47;;;19.90;;
4597;SDS011;62772;48.646;8.906;2023-03-01T05:59:01;46.27;;;20.70;;
4597;SDS011;62772;48.646;8.906;2023-03-01T06:04:03;36.20;;;18.27;;
4597;SDS011;62772;48.646;8.906;2023-03-01T06:09:05;41.63;;;19.70;;
4597;SDS011;62772;48.646;8.906;2023-03-01T06:14:07;46.20;;;22.50;;
4597;SDS011;62772;48.646;8.906;2023-03-01T06:19:07;40.63;;;19.97;;
4597;SDS011;62772;48.646;8.906;2023-03-01T06:24:08;49.20;;;22.00;;
4597;SDS011;62772;48.646;8.906;2023-03-01T06:29:09;49.53;;;22.90;;
4597;SDS011;62772;48.646;8.906;2023-03-01T06:34:09;43.07;;;21.93;;
4597;SDS011;62772;48.646;8.906;2023-03-01T06:39:13;51.07;;;24.00;;
4597;SDS011;62772;48.646;8.906;2023-03-01T06:44:13;46.87;;;20.70;;
4597;SDS011;62772;48.646;8.906;2023-03-01T06:49:14;42.87;;;20.53;;
4597;SDS011;62772;48.646;8.906;2023-03-01T06:54:16;43.30;;;20.33;;
4597;SDS011;62772;48.646;8.906;2023-03-01T06:59:18;40.50;;;19.23;;
4597;SDS011;62772;48.646;8.906;2023-03-01T07:04:18;38.90;;;20.07;;
4597;SDS011;62772;48.646;8.906;2023-03-01T07:09:19;43.40;;;20.90;;
4597;SDS011;62772;48.646;8.906;2023-03-01T07:14:21;36.97;;;19.77;;
4597;SDS011;62772;48.646;8.906;2023-03-01T07:19:24;33.37;;;15.90;;
4597;SDS011;62772;48.646;8.906;2023-03-01T07:24:25;41.10;;;19.33;;
4597;SDS011;62772;48.646;8.906;2023-03-01T07:29:25;39.37;;;18.27;;
4597;SDS011;62772;48.646;8.906;2023-03-01T07:34:25;35.80;;;17.63;;
4597;SDS011;62772;48.646;8.906;2023-03-01T07:39:26;45.50;;;19.27;;
4597;SDS011;62772;48.646;8.906;2023-03-01T07:44:26;44.47;;;19.37;;
4597;SDS011;62772;48.646;8.906;2023-03-01T07:49:28;42.50;;;19.93;;
4597;SDS011;62772;48.646;8.906;2023-03-01T07:54:28;41.20;;;20.17;;
4597;SDS011;62772;48.646;8.906;2023-03-01T07:59:29;37.43;;;19.63;;
4597;SDS011;62772;48.646;8.906;2023-03-01T08:04:29;42.40;;;19.50;;
4597;SDS011;62772;48.646;8.906;2023-03-01T08:09:30;38.43;;;19.23;;
4597;SDS011;62772;48.646;8.906;2023-03-01T08:14:34;44.67;;;20.30;;
4597;SDS011;62772;48.646;8.906;2023-03-01T08:19:34;41.93;;;20.00;;
4597;SDS011;62772;48.646;8.906;2023-03-01T08:24:35;44.17;;;20.50;;
4597;SDS011;62772;48.646;8.906;2023-03-01T08:29:35;42.43;;;20.30;;
4597;SDS011;62772;48.646;8.906;2023-03-01T08:34:36;46.60;;;20.93;;
4597;SDS011;62772;48.646;8.906;2023-03-01T08:39:36;42.50;;;21.10;;
4597;SDS011;62772;48.646;8.906;2023-03-01T08:44:36;45.43;;;20.50;;
4597;SDS011;62772;48.646;8.906;2023-03-01T08:49:37;46.40;;;21.00;;
4597;SDS011;62772;48.646;8.906;2023-03-01T08:54:37;46.80;;;21.30;;
4597;SDS011;62772;48.646;8.906;2023-03-01T08:59:38;48.93;;;23.37;;
4597;SDS011;62772;48.646;8.906;2023-03-01T09:04:38;40.70;;;19.67;;
4597;SDS011;62772;48.646;8.906;2023-03-01T09:09:39;44.70;;;21.40;;
4597;SDS011;62772;48.646;8.906;2023-03-01T09:14:40;43.00;;;20.73;;
4597;SDS011;62772;48.646;8.906;2023-03-01T09:19:41;40.10;;;20.30;;
4597;SDS011;62772;48.646;8.906;2023-03-01T09:24:41;37.30;;;19.37;;
4597;SDS011;62772;48.646;8.906;2023-03-01T09:29:42;41.10;;;20.47;;
4597;SDS011;62772;48.646;8.906;2023-03-01T09:34:43;40.33;;;19.70;;
4597;SDS011;62772;48.646;8.906;2023-03-01T09:40:05;35.93;;;19.17;;
4597;SDS011;62772;48.646;8.906;2023-03-01T09:45:10;40.97;;;21.10;;
4597;SDS011;62772;48.646;8.906;2023-03-01T09:50:18;37.80;;;20.20;;
4597;SDS011;62772;48.646;8.906;2023-03-01T09:56:03;40.70;;;20.33;;
4597;SDS011;62772;48.646;8.906;2023-03-01T10:00:44;39.30;;;19.63;;
4597;SDS011;62772;48.646;8.906;2023-03-01T10:11:24;40.70;;;18.70;;
4597;SDS011;62772;48.646;8.906;2023-03-01T10:16:34;40.23;;;19.33;;
4597;SDS011;62772;48.646;8.906;2023-03-01T10:21:36;39.10;;;20.20;;
4597;SDS011;62772;48.646;8.906;2023-03-01T10:32:03;43.43;;;21.00;;
4597;SDS011;62772;48.646;8.906;2023-03-01T10:37:13;34.50;;;17.80;;
4597;SDS011;62772;48.646;8.906;2023-03-01T10:42:19;42.30;;;21.50;;
4597;SDS011;62772;48.646;8.906;2023-03-01T10:47:41;40.03;;;20.43;;
4597;SDS011;62772;48.646;8.906;2023-03-01T10:52:42;38.67;;;20.37;;
4597;SDS011;62772;48.646;8.906;2023-03-01T10:58:16;36.30;;;18.13;;
4597;SDS011;62772;48.646;8.906;2023-03-01T11:03:21;39.47;;;20.87;;
4597;SDS011;62772;48.646;8.906;2023-03-01T11:08:30;43.10;;;22.03;;
4597;SDS011;62772;48.646;8.906;2023-03-01T11:13:49;44.93;;;19.63;;
4597;SDS011;62772;48.646;8.906;2023-03-01T11:18:56;39.53;;;19.77;;
4597;SDS011;62772;48.646;8.906;2023-03-01T11:23:59;38.57;;;19.90;;
4597;SDS011;62772;48.646;8.906;2023-03-01T11:29:02;36.63;;;17.83;;
4597;SDS011;62772;48.646;8.906;2023-03-01T11:34:13;44.00;;;20.80;;
4597;SDS011;62772;48.646;8.906;2023-03-01T11:44:52;36.03;;;19.33;;
4597;SDS011;62772;48.646;8.906;2023-03-01T12:16:31;36.43;;;18.37;;
4597;SDS011;62772;48.646;8.906;2023-03-01T12:22:05;38.73;;;19.07;;
4597;SDS011;62772;48.646;8.906;2023-03-01T12:27:55;44.07;;;20.10;;
4597;SDS011;62772;48.646;8.906;2023-03-01T12:49:10;44.57;;;19.83;;
4597;SDS011;62772;48.646;8.906;2023-03-01T12:54:33;36.63;;;20.37;;
4597;SDS011;62772;48.646;8.906;2023-03-01T12:59:39;37.33;;;19.60;;
4597;SDS011;62772;48.646;8.906;2023-03-01T13:25:30;35.43;;;19.37;;
4597;SDS011;62772;48.646;8.906;2023-03-01T13:35:41;34.40;;;18.97;;
4597;SDS011;62772;48.646;8.906;2023-03-01T13:40:56;35.53;;;18.53;;
4597;SDS011;62772;48.646;8.906;2023-03-01T13:45:58;29.37;;;18.93;;
4597;SDS011;62772;48.646;8.906;2023-03-01T13:51:04;28.73;;;16.80;;
4597;SDS011;62772;48.646;8.906;2023-03-01T13:56:20;30.13;;;17.97;;
4597;SDS011;62772;48.646;8.906;2023-03-01T14:01:27;34.23;;;19.33;;
4597;SDS011;62772;48.646;8.906;2023-03-01T14:06:30;35.03;;;16.40;;
4597;SDS011;62772;48.646;8.906;2023-03-01T14:16:56;34.28;;;17.45;;
4597;SDS011;62772;48.646;8.906;2023-03-01T14:27:25;33.73;;;18.77;;
4597;SDS011;62772;48.646;8.906;2023-03-01T14:32:31;33.90;;;18.53;;
4597;SDS011;62772;48.646;8.906;2023-03-01T14:37:33;32.10;;;19.23;;
4597;SDS011;62772;48.646;8.906;2023-03-01T14:42:35;36.30;;;18.97;;
4597;SDS011;62772;48.646;8.906;2023-03-01T14:47:36;42.00;;;19.07;;
4597;SDS011;62772;48.646;8.906;2023-03-01T14:52:40;36.90;;;18.13;;
4597;SDS011;62772;48.646;8.906;2023-03-01T14:57:46;34.97;;;18.63;;
4597;SDS011;62772;48.646;8.906;2023-03-01T15:02:48;40.80;;;20.20;;
4597;SDS011;62772;48.646;8.906;2023-03-01T15:07:51;37.40;;;17.90;;
4597;SDS011;62772;48.646;8.906;2023-03-01T15:12:53;33.43;;;17.50;;
4597;SDS011;62772;48.646;8.906;2023-03-01T15:17:54;37.33;;;18.50;;
4597;SDS011;62772;48.646;8.906;2023-03-01T15:22:57;38.63;;;20.53;;
4597;SDS011;62772;48.646;8.906;2023-03-01T15:27:58;50.93;;;20.17;;
4597;SDS011;62772;48.646;8.906;2023-03-01T15:33:46;40.87;;;20.20;;
4597;SDS011;62772;48.646;8.906;2023-03-01T15:38:32;37.50;;;18.80;;
4597;SDS011;62772;48.646;8.906;2023-03-01T15:43:39;35.23;;;19.63;;
4597;SDS011;62772;48.646;8.906;2023-03-01T15:48:45;35.23;;;19.70;;
4597;SDS011;62772;48.646;8.906;2023-03-01T15:53:50;36.37;;;19.90;;
4597;SDS011;62772;48.646;8.906;2023-03-01T15:58:52;38.70;;;18.70;;
4597;SDS011;62772;48.646;8.906;2023-03-01T16:03:53;43.20;;;20.03;;
4597;SDS011;62772;48.646;8.906;2023-03-01T16:08:54;39.03;;;18.87;;
4597;SDS011;62772;48.646;8.906;2023-03-01T16:13:54;39.27;;;19.03;;
4597;SDS011;62772;48.646;8.906;2023-03-01T16:18:55;35.47;;;19.27;;
4597;SDS011;62772;48.646;8.906;2023-03-01T16:23:55;37.70;;;18.83;;
4597;SDS011;62772;48.646;8.906;2023-03-01T16:28:56;40.43;;;17.83;;
4597;SDS011;62772;48.646;8.906;2023-03-01T16:33:57;39.40;;;17.67;;
4597;SDS011;62772;48.646;8.906;2023-03-01T16:38:59;36.30;;;18.40;;
4597;SDS011;62772;48.646;8.906;2023-03-01T16:44:00;38.23;;;18.73;;
4597;SDS011;62772;48.646;8.906;2023-03-01T16:49:01;37.93;;;17.70;;
4597;SDS011;62772;48.646;8.906;2023-03-01T16:54:03;39.50;;;19.33;;
4597;SDS011;62772;48.646;8.906;2023-03-01T16:59:04;32.90;;;17.33;;
4597;SDS011;62772;48.646;8.906;2023-03-01T17:04:05;36.87;;;17.93;;
4597;SDS011;62772;48.646;8.906;2023-03-01T17:09:06;37.60;;;17.83;;
4597;SDS011;62772;48.646;8.906;2023-03-01T17:14:07;37.67;;;17.80;;
4597;SDS011;62772;48.646;8.906;2023-03-01T17:19:07;38.97;;;18.70;;
4597;SDS011;62772;48.646;8.906;2023-03-01T17:24:08;43.83;;;19.27;;
4597;SDS011;62772;48.646;8.906;2023-03-01T17:29:08;49.43;;;20.50;;
4597;SDS011;62772;48.646;8.906;2023-03-01T17:34:08;37.77;;;18.10;;
4597;SDS011;62772;48.646;8.906;2023-03-01T17:39:09;39.07;;;17.10;;
4597;SDS011;62772;48.646;8.906;2023-03-01T17:44:10;48.87;;;18.23;;
4597;SDS011;62772;48.646;8.906;2023-03-01T17:49:11;40.97;;;18.30;;
4597;SDS011;62772;48.646;8.906;2023-03-01T17:54:11;36.67;;;17.90;;
4597;SDS011;62772;48.646;8.906;2023-03-01T17:59:12;35.77;;;18.20;;
4597;SDS011;62772;48.646;8.906;2023-03-01T18:04:12;41.00;;;19.17;;
4597;SDS011;62772;48.646;8.906;2023-03-01T18:09:13;41.23;;;20.50;;
4597;SDS011;62772;48.646;8.906;2023-03-01T18:14:14;37.33;;;18.43;;
4597;SDS011;62772;48.646;8.906;2023-03-01T18:19:14;40.87;;;18.00;;
4597;SDS011;62772;48.646;8.906;2023-03-01T18:24:15;35.97;;;16.90;;
4597;SDS011;62772;48.646;8.906;2023-03-01T18:29:16;38.83;;;17.97;;
4597;SDS011;62772;48.646;8.906;2023-03-01T18:34:16;41.03;;;18.40;;
4597;SDS011;62772;48.646;8.906;2023-03-01T18:39:17;42.03;;;19.23;;
4597;SDS011;62772;48.646;8.906;2023-03-01T18:44:18;46.00;;;18.93;;
4597;SDS011;62772;48.646;8.906;2023-03-01T18:49:19;40.13;;;19.90;;
4597;SDS011;62772;48.646;8.906;2023-03-01T18:54:19;38.37;;;18.20;;
4597;SDS011;62772;48.646;8.906;2023-03-01T18:59:20;38.97;;;19.53;;
4597;SDS011;62772;48.646;8.906;2023-03-01T19:04:20;36.13;;;18.20;;
4597;SDS011;62772;48.646;8.906;2023-03-01T19:09:21;38.63;;;18.43;;
4597;SDS011;62772;48.646;8.906;2023-03-01T19:14:21;43.07;;;19.93;;
4597;SDS011;62772;48.646;8.906;2023-03-01T19:19:22;42.23;;;19.80;;
4597;SDS011;62772;48.646;8.906;2023-03-01T19:24:22;39.67;;;19.20;;
4597;SDS011;62772;48.646;8.906;2023-03-01T19:29:22;41.67;;;18.93;;
4597;SDS011;62772;48.646;8.906;2023-03-01T19:34:23;43.47;;;19.60;;
4597;SDS011;62772;48.646;8.906;2023-03-01T19:39:24;40.77;;;19.00;;
4597;SDS011;62772;48.646;8.906;2023-03-01T19:44:26;42.50;;;19.20;;
4597;SDS011;62772;48.646;8.906;2023-03-01T19:49:27;48.23;;;19.40;;
4597;SDS011;62772;48.646;8.906;2023-03-01T19:54:28;46.60;;;18.43;;
4597;SDS011;62772;48.646;8.906;2023-03-01T19:59:29;40.10;;;18.63;;
4597;SDS011;62772;48.646;8.906;2023-03-01T20:04:29;37.43;;;17.17;;
4597;SDS011;62772;48.646;8.906;2023-03-01T20:09:30;38.97;;;17.23;;
4597;SDS011;62772;48.646;8.906;2023-03-01T20:14:30;40.30;;;19.23;;
4597;SDS011;62772;48.646;8.906;2023-03-01T20:19:31;39.50;;;18.33;;
4597;SDS011;62772;48.646;8.906;2023-03-01T20:24:31;44.30;;;22.73;;
4597;SDS011;62772;48.646;8.906;2023-03-01T20:29:32;38.57;;;18.30;;
4597;SDS011;62772;48.646;8.906;2023-03-01T20:34:32;46.83;;;19.77;;
4597;SDS011;62772;48.646;8.906;2023-03-01T20:39:35;39.67;;;19.50;;
4597;SDS011;62772;48.646;8.906;2023-03-01T20:44:35;41.20;;;19.43;;
4597;SDS011;62772;48.646;8.906;2023-03-01T20:49:42;39.83;;;18.60;;
4597;SDS011;62772;48.646;8.906;2023-03-01T20:54:42;36.60;;;18.80;;
4597;SDS011;62772;48.646;8.906;2023-03-01T20:59:43;42.27;;;19.90;;
4597;SDS011;62772;48.646;8.906;2023-03-01T21:04:43;37.77;;;18.33;;
4597;SDS011;62772;48.646;8.906;2023-03-01T21:09:44;39.57;;;18.60;;
4597;SDS011;62772;48.646;8.906;2023-03-01T21:14:44;38.47;;;19.13;;
4597;SDS011;62772;48.646;8.906;2023-03-01T21:19:46;42.80;;;20.13;;
4597;SDS011;62772;48.646;8.906;2023-03-01T21:24:47;42.10;;;18.80;;
4597;SDS011;62772;48.646;8.906;2023-03-01T21:29:48;44.90;;;20.23;;
4597;SDS011;62772;48.646;8.906;2023-03-01T21:34:48;45.07;;;19.80;;
4597;SDS011;62772;48.646;8.906;2023-03-01T21:39:49;46.10;;;19.50;;
4597;SDS011;62772;48.646;8.906;2023-03-01T21:44:49;48.87;;;19.03;;
4597;SDS011;62772;48.646;8.906;2023-03-01T21:49:50;42.03;;;20.57;;
4597;SDS011;62772;48.646;8.906;2023-03-01T21:54:50;38.53;;;18.60;;
4597;SDS011;62772;48.646;8.906;2023-03-01T21:59:51;40.80;;;20.20;;
4597;SDS011;62772;48.646;8.906;2023-03-01T22:04:52;52.73;;;19.17;;
4597;SDS011;62772;48.646;8.906;2023-03-01T22:09:56;37.33;;;17.87;;
4597;SDS011;62772;48.646;8.906;2023-03-01T22:14:56;34.93;;;17.80;;
4597;SDS011;62772;48.646;8.906;2023-03-01T22:19:57;42.70;;;18.47;;
4597;SDS011;62772;48.646;8.906;2023-03-01T22:24:58;34.93;;;18.57;;
4597;SDS011;62772;48.646;8.906;2023-03-01T22:29:58;41.10;;;19.60;;
4597;SDS011;62772;48.646;8.906;2023-03-01T22:34:58;49.77;;;20.77;;
4597;SDS011;62772;48.646;8.906;2023-03-01T22:39:59;47.73;;;19.07;;
4597;SDS011;62772;48.646;8.906;2023-03-01T22:44:59;41.90;;;20.03;;
4597;SDS011;62772;48.646;8.906;2023-03-01T22:50:00;39.67;;;19.33;;
4597;SDS011;62772;48.646;8.906;2023-03-01T22:55:00;42.77;;;21.07;;
4597;SDS011;62772;48.646;8.906;2023-03-01T23:00:02;38.90;;;19.03;;
4597;SDS011;62772;48.646;8.906;2023-03-01T23:05:07;46.53;;;20.00;;
4597;SDS011;62772;48.646;8.906;2023-03-01T23:10:08;42.90;;;20.47;;
4597;SDS011;62772;48.646;8.906;2023-03-01T23:15:11;45.93;;;19.67;;
4597;SDS011;62772;48.646;8.906;2023-03-01T23:20:11;43.83;;;19.13;;
4597;SDS011;62772;48.646;8.906;2023-03-01T23:25:13;42.30;;;20.53;;
4597;SDS011;62772;48.646;8.906;2023-03-01T23:30:14;40.43;;;18.97;;
4597;SDS011;62772;48.646;8.906;2023-03-01T23:35:14;44.27;;;20.37;;
4597;SDS011;62772;48.646;8.906;2023-03-01T23:40:15;43.63;;;21.10;;
4597;SDS011;62772;48.646;8.906;2023-03-01T23:45:16;48.30;;;20.37;;
4597;SDS011;62772;48.646;8.906;2023-03-01T23:50:16;45.73;;;21.10;;
4597;SDS011;62772;48.646;8.906;2023-03-01T23:55:17;51.83;;;21.07;;
